sensor_id;sensor_type;location;lat;lon;timestamp;P1;durP1;ratioP1;P2;durP2;ratioP2
68800;SDS011;55784;50.734;7.086;2023-03-01T00:01:00;19.23;;;6.68;;
68800;SDS011;55784;50.734;7.086;2023-03-01T00:03:30;19.30;;;7.60;;
68800;SDS011;55784;50.734;7.086;2023-03-01T00:05:55;18.55;;;6.93;;
68800;SDS011;55784;50.734;7.086;2023-03-01T00:08:20;18.97;;;6.60;;
68800;SDS011;55784;50.734;7.086;2023-03-01T00:10:46;20.10;;;6.90;;
68800;SDS011;55784;50.734;7.086;2023-03-01T00:13:11;17.83;;;6.90;;
68800;SDS011;55784;50.734;7.086;2023-03-01T00:15:40;17.10;;;6.50;;
68800;SDS011;55784;50.734;7.086;2023-03-01T00:18:06;16.65;;;6.50;;
68800;SDS011;55784;50.734;7.086;2023-03-01T00:20:33;18.65;;;7.03;;
68800;SDS011;55784;50.734;7.086;2023-03-01T00:22:58;16.43;;;7.00;;
68800;SDS011;55784;50.734;7.086;2023-03-01T00:25:24;19.03;;;7.60;;
68800;SDS011;55784;50.734;7.086;2023-03-01T00:27:49;19.13;;;7.70;;
68800;SDS011;55784;50.734;7.086;2023-03-01T00:30:14;18.95;;;7.82;;
68800;SDS011;55784;50.734;7.086;2023-03-01T00:32:40;17.95;;;7.40;;
68800;SDS011;55784;50.734;7.086;2023-03-01T00:35:05;20.20;;;7.70;;
68800;SDS011;55784;50.734;7.086;2023-03-01T00:37:31;20.57;;;8.30;;
68800;SDS011;55784;50.734;7.086;2023-03-01T00:39:56;21.37;;;8.20;;
68800;SDS011;55784;50.734;7.086;2023-03-01T00:42:22;21.40;;;8.60;;
68800;SDS011;55784;50.734;7.086;2023-03-01T00:44:47;18.80;;;7.05;;
68800;SDS011;55784;50.734;7.086;2023-03-01T00:47:12;19.15;;;7.70;;
68800;SDS011;55784;50.734;7.086;2023-03-01T00:49:38;18.10;;;7.17;;
68800;SDS011;55784;50.734;7.086;2023-03-01T00:52:04;21.85;;;7.20;;
68800;SDS011;55784;50.734;7.086;2023-03-01T00:54:29;18.97;;;7.07;;
68800;SDS011;55784;50.734;7.086;2023-03-01T00:56:55;18.77;;;7.20;;
68800;SDS011;55784;50.734;7.086;2023-03-01T00:59:20;21.77;;;6.80;;
68800;SDS011;55784;50.734;7.086;2023-03-01T01:01:45;18.73;;;7.07;;
68800;SDS011;55784;50.734;7.086;2023-03-01T01:04:12;17.57;;;6.97;;
68800;SDS011;55784;50.734;7.086;2023-03-01T01:06:42;16.77;;;6.30;;
68800;SDS011;55784;50.734;7.086;2023-03-01T01:09:10;18.63;;;7.05;;
68800;SDS011;55784;50.734;7.086;2023-03-01T01:11:45;16.55;;;6.32;;
68800;SDS011;55784;50.734;7.086;2023-03-01T01:14:12;17.70;;;6.00;;
68800;SDS011;55784;50.734;7.086;2023-03-01T01:16:37;15.40;;;6.05;;
68800;SDS011;55784;50.734;7.086;2023-03-01T01:19:03;16.50;;;6.20;;
68800;SDS011;55784;50.734;7.086;2023-03-01T01:21:28;17.90;;;6.50;;
68800;SDS011;55784;50.734;7.086;2023-03-01T01:23:54;18.30;;;6.32;;
68800;SDS011;55784;50.734;7.086;2023-03-01T01:26:22;16.95;;;6.05;;
68800;SDS011;55784;50.734;7.086;2023-03-01T01:28:52;18.43;;;6.80;;
68800;SDS011;55784;50.734;7.086;2023-03-01T01:31:18;15.98;;;5.93;;
68800;SDS011;55784;50.734;7.086;2023-03-01T01:33:44;16.45;;;6.20;;
68800;SDS011;55784;50.734;7.086;2023-03-01T01:36:10;16.55;;;6.03;;
68800;SDS011;55784;50.734;7.086;2023-03-01T01:38:36;16.07;;;5.87;;
68800;SDS011;55784;50.734;7.086;2023-03-01T01:41:02;16.52;;;6.20;;
68800;SDS011;55784;50.734;7.086;2023-03-01T01:43:30;16.10;;;6.28;;
68800;SDS011;55784;50.734;7.086;2023-03-01T01:46:21;16.63;;;6.00;;
68800;SDS011;55784;50.734;7.086;2023-03-01T01:49:38;17.00;;;6.13;;
68800;SDS011;55784;50.734;7.086;2023-03-01T01:51:44;19.23;;;6.65;;
68800;SDS011;55784;50.734;7.086;2023-03-01T01:54:27;17.20;;;6.63;;
68800;SDS011;55784;50.734;7.086;2023-03-01T01:56:58;19.88;;;7.07;;
68800;SDS011;55784;50.734;7.086;2023-03-01T01:59:28;17.23;;;6.20;;
68800;SDS011;55784;50.734;7.086;2023-03-01T02:01:56;17.58;;;6.60;;
68800;SDS011;55784;50.734;7.086;2023-03-01T02:04:24;19.40;;;7.32;;
68800;SDS011;55784;50.734;7.086;2023-03-01T02:07:13;20.88;;;7.85;;
68800;SDS011;55784;50.734;7.086;2023-03-01T02:09:41;18.30;;;6.78;;
68800;SDS011;55784;50.734;7.086;2023-03-01T02:12:09;21.03;;;6.90;;
68800;SDS011;55784;50.734;7.086;2023-03-01T02:14:35;17.15;;;6.68;;
68800;SDS011;55784;50.734;7.086;2023-03-01T02:17:00;17.75;;;6.38;;
68800;SDS011;55784;50.734;7.086;2023-03-01T02:19:30;20.53;;;7.20;;
68800;SDS011;55784;50.734;7.086;2023-03-01T02:24:35;18.60;;;6.20;;
68800;SDS011;55784;50.734;7.086;2023-03-01T02:27:07;16.50;;;6.05;;
68800;SDS011;55784;50.734;7.086;2023-03-01T02:29:34;18.73;;;6.80;;
68800;SDS011;55784;50.734;7.086;2023-03-01T02:32:00;18.33;;;6.78;;
68800;SDS011;55784;50.734;7.086;2023-03-01T02:34:28;18.95;;;7.07;;
68800;SDS011;55784;50.734;7.086;2023-03-01T02:36:57;17.23;;;6.57;;
68800;SDS011;55784;50.734;7.086;2023-03-01T02:42:30;17.60;;;6.68;;
68800;SDS011;55784;50.734;7.086;2023-03-01T02:45:05;17.40;;;6.25;;
68800;SDS011;55784;50.734;7.086;2023-03-01T02:47:31;21.50;;;7.10;;
68800;SDS011;55784;50.734;7.086;2023-03-01T02:49:56;19.43;;;6.83;;
68800;SDS011;55784;50.734;7.086;2023-03-01T02:52:37;19.40;;;7.00;;
68800;SDS011;55784;50.734;7.086;2023-03-01T02:55:13;18.05;;;6.63;;
68800;SDS011;55784;50.734;7.086;2023-03-01T02:57:41;16.70;;;6.65;;
68800;SDS011;55784;50.734;7.086;2023-03-01T03:00:13;17.50;;;6.68;;
68800;SDS011;55784;50.734;7.086;2023-03-01T03:02:44;18.65;;;6.72;;
68800;SDS011;55784;50.734;7.086;2023-03-01T03:05:12;20.00;;;7.03;;
68800;SDS011;55784;50.734;7.086;2023-03-01T03:07:40;19.52;;;6.40;;
68800;SDS011;55784;50.734;7.086;2023-03-01T03:10:11;16.88;;;6.30;;
68800;SDS011;55784;50.734;7.086;2023-03-01T03:12:41;15.63;;;5.40;;
68800;SDS011;55784;50.734;7.086;2023-03-01T03:15:08;18.77;;;6.18;;
68800;SDS011;55784;50.734;7.086;2023-03-01T03:17:38;16.13;;;6.17;;
68800;SDS011;55784;50.734;7.086;2023-03-01T03:20:06;17.58;;;5.80;;
68800;SDS011;55784;50.734;7.086;2023-03-01T03:22:38;16.08;;;6.00;;
68800;SDS011;55784;50.734;7.086;2023-03-01T03:25:04;19.15;;;7.20;;
68800;SDS011;55784;50.734;7.086;2023-03-01T03:27:33;19.98;;;7.95;;
68800;SDS011;55784;50.734;7.086;2023-03-01T03:29:59;19.80;;;7.00;;
68800;SDS011;55784;50.734;7.086;2023-03-01T03:32:24;19.77;;;7.60;;
68800;SDS011;55784;50.734;7.086;2023-03-01T03:34:49;19.43;;;7.50;;
68800;SDS011;55784;50.734;7.086;2023-03-01T03:37:15;17.97;;;7.20;;
68800;SDS011;55784;50.734;7.086;2023-03-01T03:39:59;17.35;;;6.60;;
68800;SDS011;55784;50.734;7.086;2023-03-01T03:42:24;19.83;;;7.40;;
68800;SDS011;55784;50.734;7.086;2023-03-01T03:44:49;18.17;;;6.50;;
68800;SDS011;55784;50.734;7.086;2023-03-01T03:47:15;17.03;;;6.37;;
68800;SDS011;55784;50.734;7.086;2023-03-01T03:49:40;17.93;;;6.67;;
68800;SDS011;55784;50.734;7.086;2023-03-01T03:52:05;22.23;;;7.50;;
68800;SDS011;55784;50.734;7.086;2023-03-01T03:54:38;18.50;;;6.32;;
68800;SDS011;55784;50.734;7.086;2023-03-01T03:57:04;18.40;;;6.35;;
68800;SDS011;55784;50.734;7.086;2023-03-01T03:59:29;17.50;;;6.67;;
68800;SDS011;55784;50.734;7.086;2023-03-01T04:01:55;20.13;;;6.20;;
68800;SDS011;55784;50.734;7.086;2023-03-01T04:04:21;18.10;;;5.83;;
68800;SDS011;55784;50.734;7.086;2023-03-01T04:06:46;20.20;;;6.85;;
68800;SDS011;55784;50.734;7.086;2023-03-01T04:09:13;19.23;;;7.10;;
68800;SDS011;55784;50.734;7.086;2023-03-01T04:11:38;19.40;;;7.23;;
68800;SDS011;55784;50.734;7.086;2023-03-01T04:14:03;17.97;;;6.30;;
68800;SDS011;55784;50.734;7.086;2023-03-01T04:16:29;18.83;;;6.97;;
68800;SDS011;55784;50.734;7.086;2023-03-01T04:18:54;17.03;;;6.60;;
68800;SDS011;55784;50.734;7.086;2023-03-01T04:21:20;19.13;;;6.70;;
68800;SDS011;55784;50.734;7.086;2023-03-01T04:23:45;18.42;;;6.35;;
68800;SDS011;55784;50.734;7.086;2023-03-01T04:26:11;18.03;;;6.10;;
68800;SDS011;55784;50.734;7.086;2023-03-01T04:28:38;17.05;;;6.15;;
68800;SDS011;55784;50.734;7.086;2023-03-01T04:31:12;18.42;;;6.78;;
68800;SDS011;55784;50.734;7.086;2023-03-01T04:33:51;19.05;;;6.78;;
68800;SDS011;55784;50.734;7.086;2023-03-01T04:36:18;18.83;;;6.60;;
68800;SDS011;55784;50.734;7.086;2023-03-01T04:38:45;21.25;;;6.53;;
68800;SDS011;55784;50.734;7.086;2023-03-01T04:41:14;16.60;;;6.17;;
68800;SDS011;55784;50.734;7.086;2023-03-01T04:43:41;23.40;;;8.18;;
68800;SDS011;55784;50.734;7.086;2023-03-01T04:46:07;20.93;;;7.57;;
68800;SDS011;55784;50.734;7.086;2023-03-01T04:48:36;20.02;;;7.07;;
68800;SDS011;55784;50.734;7.086;2023-03-01T04:51:02;19.30;;;7.22;;
68800;SDS011;55784;50.734;7.086;2023-03-01T04:53:28;23.02;;;7.78;;
68800;SDS011;55784;50.734;7.086;2023-03-01T04:55:55;21.70;;;7.70;;
68800;SDS011;55784;50.734;7.086;2023-03-01T04:58:24;19.07;;;6.90;;
68800;SDS011;55784;50.734;7.086;2023-03-01T05:00:51;19.45;;;6.93;;
68800;SDS011;55784;50.734;7.086;2023-03-01T05:03:17;17.45;;;6.38;;
68800;SDS011;55784;50.734;7.086;2023-03-01T05:05:43;17.92;;;6.03;;
68800;SDS011;55784;50.734;7.086;2023-03-01T05:08:09;17.92;;;5.70;;
68800;SDS011;55784;50.734;7.086;2023-03-01T05:10:42;17.25;;;6.22;;
68800;SDS011;55784;50.734;7.086;2023-03-01T05:13:08;16.55;;;6.18;;
68800;SDS011;55784;50.734;7.086;2023-03-01T05:15:34;20.03;;;6.27;;
68800;SDS011;55784;50.734;7.086;2023-03-01T05:18:01;19.65;;;6.15;;
68800;SDS011;55784;50.734;7.086;2023-03-01T05:20:28;17.15;;;6.28;;
68800;SDS011;55784;50.734;7.086;2023-03-01T05:22:55;21.17;;;6.80;;
68800;SDS011;55784;50.734;7.086;2023-03-01T05:25:23;22.15;;;6.78;;
68800;SDS011;55784;50.734;7.086;2023-03-01T05:27:49;17.90;;;6.35;;
68800;SDS011;55784;50.734;7.086;2023-03-01T05:30:15;19.48;;;7.00;;
68800;SDS011;55784;50.734;7.086;2023-03-01T05:32:43;17.63;;;6.60;;
68800;SDS011;55784;50.734;7.086;2023-03-01T05:35:10;21.75;;;6.60;;
68800;SDS011;55784;50.734;7.086;2023-03-01T05:37:44;19.13;;;6.55;;
68800;SDS011;55784;50.734;7.086;2023-03-01T05:40:12;16.58;;;5.97;;
68800;SDS011;55784;50.734;7.086;2023-03-01T05:42:42;17.08;;;6.10;;
68800;SDS011;55784;50.734;7.086;2023-03-01T05:45:09;17.87;;;6.23;;
68800;SDS011;55784;50.734;7.086;2023-03-01T05:47:35;18.70;;;6.38;;
68800;SDS011;55784;50.734;7.086;2023-03-01T05:50:00;19.93;;;6.47;;
68800;SDS011;55784;50.734;7.086;2023-03-01T05:52:26;18.23;;;5.93;;
68800;SDS011;55784;50.734;7.086;2023-03-01T05:54:51;17.67;;;6.30;;
68800;SDS011;55784;50.734;7.086;2023-03-01T05:57:18;20.30;;;6.70;;
68800;SDS011;55784;50.734;7.086;2023-03-01T05:59:43;21.10;;;6.63;;
68800;SDS011;55784;50.734;7.086;2023-03-01T06:02:08;20.87;;;6.70;;
68800;SDS011;55784;50.734;7.086;2023-03-01T06:04:34;23.67;;;7.60;;
68800;SDS011;55784;50.734;7.086;2023-03-01T06:06:59;25.57;;;7.47;;
68800;SDS011;55784;50.734;7.086;2023-03-01T06:09:24;20.97;;;7.20;;
68800;SDS011;55784;50.734;7.086;2023-03-01T06:11:52;21.55;;;6.57;;
68800;SDS011;55784;50.734;7.086;2023-03-01T06:14:27;20.50;;;6.72;;
68800;SDS011;55784;50.734;7.086;2023-03-01T06:24:40;21.70;;;8.02;;
68800;SDS011;55784;50.734;7.086;2023-03-01T06:27:10;20.65;;;7.15;;
68800;SDS011;55784;50.734;7.086;2023-03-01T06:29:35;23.33;;;8.13;;
68800;SDS011;55784;50.734;7.086;2023-03-01T06:32:05;20.17;;;6.82;;
68800;SDS011;55784;50.734;7.086;2023-03-01T06:34:34;20.00;;;6.85;;
68800;SDS011;55784;50.734;7.086;2023-03-01T06:37:02;18.05;;;6.55;;
68800;SDS011;55784;50.734;7.086;2023-03-01T06:39:30;21.50;;;7.82;;
68800;SDS011;55784;50.734;7.086;2023-03-01T06:42:02;21.65;;;7.72;;
68800;SDS011;55784;50.734;7.086;2023-03-01T06:44:28;20.45;;;7.35;;
68800;SDS011;55784;50.734;7.086;2023-03-01T06:46:53;21.00;;;6.97;;
68800;SDS011;55784;50.734;7.086;2023-03-01T06:49:19;20.38;;;7.03;;
68800;SDS011;55784;50.734;7.086;2023-03-01T06:51:48;18.67;;;6.57;;
68800;SDS011;55784;50.734;7.086;2023-03-01T06:54:13;21.55;;;7.63;;
68800;SDS011;55784;50.734;7.086;2023-03-01T06:56:41;21.97;;;7.37;;
68800;SDS011;55784;50.734;7.086;2023-03-01T06:59:16;22.35;;;6.78;;
68800;SDS011;55784;50.734;7.086;2023-03-01T07:01:56;20.70;;;6.80;;
68800;SDS011;55784;50.734;7.086;2023-03-01T07:08:14;22.05;;;6.93;;
68800;SDS011;55784;50.734;7.086;2023-03-01T07:11:16;21.25;;;7.30;;
68800;SDS011;55784;50.734;7.086;2023-03-01T07:24:15;23.40;;;7.82;;
68800;SDS011;55784;50.734;7.086;2023-03-01T07:26:41;24.70;;;7.90;;
68800;SDS011;55784;50.734;7.086;2023-03-01T07:29:07;20.60;;;7.60;;
68800;SDS011;55784;50.734;7.086;2023-03-01T07:31:36;19.70;;;7.85;;
68800;SDS011;55784;50.734;7.086;2023-03-01T07:34:02;19.67;;;7.60;;
68800;SDS011;55784;50.734;7.086;2023-03-01T07:36:27;22.40;;;7.33;;
68800;SDS011;55784;50.734;7.086;2023-03-01T07:38:53;20.88;;;6.88;;
68800;SDS011;55784;50.734;7.086;2023-03-01T07:41:20;18.90;;;7.47;;
68800;SDS011;55784;50.734;7.086;2023-03-01T07:43:46;20.80;;;7.43;;
68800;SDS011;55784;50.734;7.086;2023-03-01T07:46:17;19.42;;;7.40;;
68800;SDS011;55784;50.734;7.086;2023-03-01T07:48:44;21.65;;;7.88;;
68800;SDS011;55784;50.734;7.086;2023-03-01T07:51:09;24.27;;;7.80;;
68800;SDS011;55784;50.734;7.086;2023-03-01T07:53:48;19.98;;;7.32;;
68800;SDS011;55784;50.734;7.086;2023-03-01T07:56:49;20.07;;;7.67;;
68800;SDS011;55784;50.734;7.086;2023-03-01T07:59:23;20.38;;;7.57;;
68800;SDS011;55784;50.734;7.086;2023-03-01T08:02:12;23.87;;;7.10;;
68800;SDS011;55784;50.734;7.086;2023-03-01T08:04:48;19.58;;;6.55;;
68800;SDS011;55784;50.734;7.086;2023-03-01T08:07:13;20.15;;;7.25;;
68800;SDS011;55784;50.734;7.086;2023-03-01T08:09:39;22.03;;;7.30;;
68800;SDS011;55784;50.734;7.086;2023-03-01T08:12:07;20.88;;;7.47;;
68800;SDS011;55784;50.734;7.086;2023-03-01T08:14:35;20.70;;;8.00;;
68800;SDS011;55784;50.734;7.086;2023-03-01T08:17:06;22.67;;;7.88;;
68800;SDS011;55784;50.734;7.086;2023-03-01T08:19:32;22.35;;;8.32;;
68800;SDS011;55784;50.734;7.086;2023-03-01T08:22:02;22.02;;;8.18;;
68800;SDS011;55784;50.734;7.086;2023-03-01T08:24:31;21.23;;;7.73;;
68800;SDS011;55784;50.734;7.086;2023-03-01T08:26:56;21.48;;;7.97;;
68800;SDS011;55784;50.734;7.086;2023-03-01T08:29:22;20.83;;;7.68;;
68800;SDS011;55784;50.734;7.086;2023-03-01T08:35:03;22.35;;;8.00;;
68800;SDS011;55784;50.734;7.086;2023-03-01T09:17:55;22.10;;;7.95;;
68800;SDS011;55784;50.734;7.086;2023-03-01T09:24:19;20.53;;;7.00;;
68800;SDS011;55784;50.734;7.086;2023-03-01T10:18:29;19.55;;;6.55;;
68800;SDS011;55784;50.734;7.086;2023-03-01T10:21:18;17.70;;;6.32;;
68800;SDS011;55784;50.734;7.086;2023-03-01T10:23:59;17.40;;;6.40;;
68800;SDS011;55784;50.734;7.086;2023-03-01T10:26:48;15.65;;;6.00;;
68800;SDS011;55784;50.734;7.086;2023-03-01T10:33:04;15.98;;;6.35;;
68800;SDS011;55784;50.734;7.086;2023-03-01T10:44:51;16.80;;;6.00;;
68800;SDS011;55784;50.734;7.086;2023-03-01T10:47:28;17.88;;;6.50;;
68800;SDS011;55784;50.734;7.086;2023-03-01T10:50:01;19.08;;;6.95;;
68800;SDS011;55784;50.734;7.086;2023-03-01T10:53:27;18.50;;;6.57;;
68800;SDS011;55784;50.734;7.086;2023-03-01T10:56:12;17.88;;;6.65;;
68800;SDS011;55784;50.734;7.086;2023-03-01T10:59:03;19.10;;;7.32;;
68800;SDS011;55784;50.734;7.086;2023-03-01T11:01:45;17.42;;;6.50;;
68800;SDS011;55784;50.734;7.086;2023-03-01T11:04:12;16.43;;;6.70;;
68800;SDS011;55784;50.734;7.086;2023-03-01T11:07:25;16.00;;;5.90;;
68800;SDS011;55784;50.734;7.086;2023-03-01T11:09:51;16.58;;;6.40;;
68800;SDS011;55784;50.734;7.086;2023-03-01T11:15:19;15.55;;;6.13;;
68800;SDS011;55784;50.734;7.086;2023-03-01T11:17:54;15.80;;;6.78;;
68800;SDS011;55784;50.734;7.086;2023-03-01T11:26:08;14.77;;;5.53;;
68800;SDS011;55784;50.734;7.086;2023-03-01T11:28:37;13.35;;;5.57;;
68800;SDS011;55784;50.734;7.086;2023-03-01T11:31:15;14.48;;;5.53;;
68800;SDS011;55784;50.734;7.086;2023-03-01T11:33:56;15.40;;;6.00;;
68800;SDS011;55784;50.734;7.086;2023-03-01T11:36:33;15.02;;;5.80;;
68800;SDS011;55784;50.734;7.086;2023-03-01T11:42:20;21.67;;;8.43;;
68800;SDS011;55784;50.734;7.086;2023-03-01T11:44:54;23.02;;;8.02;;
68800;SDS011;55784;50.734;7.086;2023-03-01T11:52:37;16.20;;;5.30;;
68800;SDS011;55784;50.734;7.086;2023-03-01T11:57:48;13.23;;;5.38;;
68800;SDS011;55784;50.734;7.086;2023-03-01T12:03:25;14.60;;;5.60;;
68800;SDS011;55784;50.734;7.086;2023-03-01T12:24:52;14.52;;;5.72;;
68800;SDS011;55784;50.734;7.086;2023-03-01T12:44:01;15.13;;;5.53;;
68800;SDS011;55784;50.734;7.086;2023-03-01T12:46:48;14.10;;;5.33;;
68800;SDS011;55784;50.734;7.086;2023-03-01T12:52:16;14.77;;;6.22;;
68800;SDS011;55784;50.734;7.086;2023-03-01T12:54:56;14.13;;;5.30;;
68800;SDS011;55784;50.734;7.086;2023-03-01T12:57:26;14.82;;;6.35;;
68800;SDS011;55784;50.734;7.086;2023-03-01T13:05:34;12.65;;;4.60;;
68800;SDS011;55784;50.734;7.086;2023-03-01T13:08:14;11.73;;;4.53;;
68800;SDS011;55784;50.734;7.086;2023-03-01T13:10:43;10.52;;;4.30;;
68800;SDS011;55784;50.734;7.086;2023-03-01T13:13:31;11.17;;;4.20;;
68800;SDS011;55784;50.734;7.086;2023-03-01T13:15:56;14.40;;;4.80;;
68800;SDS011;55784;50.734;7.086;2023-03-01T13:20:50;13.67;;;5.30;;
68800;SDS011;55784;50.734;7.086;2023-03-01T13:23:30;15.38;;;6.95;;
68800;SDS011;55784;50.734;7.086;2023-03-01T13:26:04;14.27;;;5.38;;
68800;SDS011;55784;50.734;7.086;2023-03-01T13:33:50;14.73;;;5.20;;
68800;SDS011;55784;50.734;7.086;2023-03-01T13:44:13;12.13;;;4.78;;
68800;SDS011;55784;50.734;7.086;2023-03-01T13:46:49;12.70;;;4.47;;
68800;SDS011;55784;50.734;7.086;2023-03-01T13:49:17;10.15;;;4.18;;
68800;SDS011;55784;50.734;7.086;2023-03-01T13:51:48;11.43;;;4.75;;
68800;SDS011;55784;50.734;7.086;2023-03-01T13:54:15;11.45;;;4.68;;
68800;SDS011;55784;50.734;7.086;2023-03-01T13:56:44;13.88;;;5.03;;
68800;SDS011;55784;50.734;7.086;2023-03-01T13:59:17;12.07;;;4.40;;
68800;SDS011;55784;50.734;7.086;2023-03-01T14:01:44;13.32;;;4.90;;
68800;SDS011;55784;50.734;7.086;2023-03-01T14:04:22;11.00;;;4.47;;
68800;SDS011;55784;50.734;7.086;2023-03-01T14:06:47;12.73;;;5.50;;
68800;SDS011;55784;50.734;7.086;2023-03-01T14:09:17;15.00;;;5.00;;
68800;SDS011;55784;50.734;7.086;2023-03-01T14:14:29;16.13;;;5.32;;
68800;SDS011;55784;50.734;7.086;2023-03-01T14:17:38;11.88;;;4.25;;
68800;SDS011;55784;50.734;7.086;2023-03-01T14:20:08;12.45;;;4.28;;
68800;SDS011;55784;50.734;7.086;2023-03-01T14:22:44;11.70;;;4.40;;
68800;SDS011;55784;50.734;7.086;2023-03-01T14:27:45;11.38;;;4.22;;
68800;SDS011;55784;50.734;7.086;2023-03-01T14:30:25;11.85;;;4.30;;
68800;SDS011;55784;50.734;7.086;2023-03-01T14:32:56;13.10;;;4.28;;
68800;SDS011;55784;50.734;7.086;2023-03-01T14:35:27;10.95;;;4.25;;
68800;SDS011;55784;50.734;7.086;2023-03-01T14:37:54;12.32;;;4.88;;
68800;SDS011;55784;50.734;7.086;2023-03-01T14:40:21;10.38;;;3.75;;
68800;SDS011;55784;50.734;7.086;2023-03-01T14:42:49;11.77;;;4.05;;
68800;SDS011;55784;50.734;7.086;2023-03-01T14:45:14;10.23;;;4.15;;
68800;SDS011;55784;50.734;7.086;2023-03-01T14:47:39;10.50;;;3.80;;
68800;SDS011;55784;50.734;7.086;2023-03-01T14:50:18;11.13;;;3.80;;
68800;SDS011;55784;50.734;7.086;2023-03-01T14:52:50;11.75;;;3.67;;
68800;SDS011;55784;50.734;7.086;2023-03-01T14:55:27;11.38;;;3.55;;
68800;SDS011;55784;50.734;7.086;2023-03-01T14:57:55;11.57;;;3.90;;
68800;SDS011;55784;50.734;7.086;2023-03-01T15:00:22;9.07;;;3.50;;
68800;SDS011;55784;50.734;7.086;2023-03-01T15:02:53;10.50;;;3.97;;
68800;SDS011;55784;50.734;7.086;2023-03-01T15:05:26;11.10;;;4.07;;
68800;SDS011;55784;50.734;7.086;2023-03-01T15:07:55;11.13;;;3.55;;
68800;SDS011;55784;50.734;7.086;2023-03-01T15:10:24;9.63;;;3.65;;
68800;SDS011;55784;50.734;7.086;2023-03-01T15:12:51;9.27;;;3.80;;
68800;SDS011;55784;50.734;7.086;2023-03-01T15:15:22;11.07;;;3.88;;
68800;SDS011;55784;50.734;7.086;2023-03-01T15:17:56;11.38;;;3.97;;
68800;SDS011;55784;50.734;7.086;2023-03-01T15:20:24;13.63;;;5.40;;
68800;SDS011;55784;50.734;7.086;2023-03-01T15:22:52;12.00;;;4.80;;
68800;SDS011;55784;50.734;7.086;2023-03-01T15:25:21;13.52;;;5.28;;
68800;SDS011;55784;50.734;7.086;2023-03-01T15:27:51;12.90;;;4.85;;
68800;SDS011;55784;50.734;7.086;2023-03-01T15:30:21;11.95;;;4.88;;
68800;SDS011;55784;50.734;7.086;2023-03-01T15:39:00;13.32;;;4.93;;
68800;SDS011;55784;50.734;7.086;2023-03-01T15:41:30;10.63;;;3.40;;
68800;SDS011;55784;50.734;7.086;2023-03-01T15:44:17;9.82;;;3.40;;
68800;SDS011;55784;50.734;7.086;2023-03-01T15:46:53;10.70;;;3.67;;
68800;SDS011;55784;50.734;7.086;2023-03-01T15:49:25;9.85;;;3.50;;
68800;SDS011;55784;50.734;7.086;2023-03-01T15:51:57;10.05;;;3.63;;
68800;SDS011;55784;50.734;7.086;2023-03-01T15:54:24;10.40;;;3.40;;
68800;SDS011;55784;50.734;7.086;2023-03-01T15:56:51;12.38;;;3.20;;
68800;SDS011;55784;50.734;7.086;2023-03-01T15:59:17;9.23;;;3.10;;
68800;SDS011;55784;50.734;7.086;2023-03-01T16:01:43;8.27;;;3.00;;
68800;SDS011;55784;50.734;7.086;2023-03-01T16:04:16;8.00;;;2.92;;
68800;SDS011;55784;50.734;7.086;2023-03-01T16:06:52;8.43;;;2.70;;
68800;SDS011;55784;50.734;7.086;2023-03-01T16:09:24;9.15;;;2.50;;
68800;SDS011;55784;50.734;7.086;2023-03-01T16:11:51;10.67;;;3.10;;
68800;SDS011;55784;50.734;7.086;2023-03-01T16:14:18;9.88;;;3.03;;
68800;SDS011;55784;50.734;7.086;2023-03-01T16:16:44;14.95;;;4.10;;
68800;SDS011;55784;50.734;7.086;2023-03-01T16:19:12;12.90;;;4.72;;
68800;SDS011;55784;50.734;7.086;2023-03-01T16:21:44;12.20;;;4.60;;
68800;SDS011;55784;50.734;7.086;2023-03-01T16:24:29;11.70;;;4.20;;
68800;SDS011;55784;50.734;7.086;2023-03-01T16:27:01;11.85;;;4.15;;
68800;SDS011;55784;50.734;7.086;2023-03-01T16:29:27;12.25;;;4.43;;
68800;SDS011;55784;50.734;7.086;2023-03-01T16:31:54;10.95;;;4.18;;
68800;SDS011;55784;50.734;7.086;2023-03-01T16:34:20;13.13;;;5.00;;
68800;SDS011;55784;50.734;7.086;2023-03-01T16:40:02;13.20;;;4.70;;
68800;SDS011;55784;50.734;7.086;2023-03-01T16:43:23;13.98;;;5.07;;
68800;SDS011;55784;50.734;7.086;2023-03-01T16:45:49;12.10;;;5.03;;
68800;SDS011;55784;50.734;7.086;2023-03-01T16:48:14;11.30;;;4.00;;
68800;SDS011;55784;50.734;7.086;2023-03-01T16:51:00;11.98;;;3.80;;
68800;SDS011;55784;50.734;7.086;2023-03-01T16:53:49;11.60;;;4.15;;
68800;SDS011;55784;50.734;7.086;2023-03-01T16:59:51;11.48;;;3.58;;
68800;SDS011;55784;50.734;7.086;2023-03-01T17:06:24;10.57;;;3.40;;
68800;SDS011;55784;50.734;7.086;2023-03-01T17:16:40;13.47;;;3.73;;
68800;SDS011;55784;50.734;7.086;2023-03-01T17:19:06;13.50;;;3.92;;
68800;SDS011;55784;50.734;7.086;2023-03-01T17:21:37;11.23;;;3.83;;
68800;SDS011;55784;50.734;7.086;2023-03-01T17:24:24;10.65;;;3.80;;
68800;SDS011;55784;50.734;7.086;2023-03-01T17:35:38;10.40;;;3.80;;
68800;SDS011;55784;50.734;7.086;2023-03-01T17:38:04;18.07;;;7.20;;
68800;SDS011;55784;50.734;7.086;2023-03-01T17:40:30;14.32;;;4.75;;
68800;SDS011;55784;50.734;7.086;2023-03-01T17:42:56;15.20;;;4.90;;
68800;SDS011;55784;50.734;7.086;2023-03-01T17:45:22;9.67;;;4.10;;
68800;SDS011;55784;50.734;7.086;2023-03-01T17:47:47;12.85;;;4.63;;
68800;SDS011;55784;50.734;7.086;2023-03-01T17:50:13;12.30;;;4.28;;
68800;SDS011;55784;50.734;7.086;2023-03-01T17:52:38;12.67;;;4.30;;
68800;SDS011;55784;50.734;7.086;2023-03-01T17:55:05;12.07;;;3.97;;
68800;SDS011;55784;50.734;7.086;2023-03-01T17:57:31;13.32;;;4.90;;
68800;SDS011;55784;50.734;7.086;2023-03-01T17:59:56;13.67;;;4.60;;
68800;SDS011;55784;50.734;7.086;2023-03-01T18:02:22;15.13;;;4.60;;
68800;SDS011;55784;50.734;7.086;2023-03-01T18:04:47;12.77;;;4.70;;
68800;SDS011;55784;50.734;7.086;2023-03-01T18:07:12;14.93;;;5.57;;
68800;SDS011;55784;50.734;7.086;2023-03-01T18:09:38;13.10;;;4.70;;
68800;SDS011;55784;50.734;7.086;2023-03-01T18:12:03;13.27;;;4.90;;
68800;SDS011;55784;50.734;7.086;2023-03-01T18:14:28;12.77;;;4.70;;
68800;SDS011;55784;50.734;7.086;2023-03-01T18:16:57;14.80;;;5.18;;
68800;SDS011;55784;50.734;7.086;2023-03-01T18:19:23;13.30;;;4.43;;
68800;SDS011;55784;50.734;7.086;2023-03-01T18:21:48;12.00;;;4.03;;
68800;SDS011;55784;50.734;7.086;2023-03-01T18:24:14;11.63;;;4.20;;
68800;SDS011;55784;50.734;7.086;2023-03-01T18:26:39;11.27;;;3.97;;
68800;SDS011;55784;50.734;7.086;2023-03-01T18:29:04;14.30;;;4.30;;
68800;SDS011;55784;50.734;7.086;2023-03-01T18:31:31;12.32;;;3.92;;
68800;SDS011;55784;50.734;7.086;2023-03-01T18:33:57;11.30;;;3.60;;
68800;SDS011;55784;50.734;7.086;2023-03-01T18:36:26;14.15;;;4.40;;
68800;SDS011;55784;50.734;7.086;2023-03-01T18:38:53;12.40;;;3.90;;
68800;SDS011;55784;50.734;7.086;2023-03-01T18:41:23;10.45;;;3.70;;
68800;SDS011;55784;50.734;7.086;2023-03-01T18:43:49;9.13;;;3.30;;
68800;SDS011;55784;50.734;7.086;2023-03-01T18:46:14;10.25;;;3.63;;
68800;SDS011;55784;50.734;7.086;2023-03-01T18:48:40;9.53;;;3.57;;
68800;SDS011;55784;50.734;7.086;2023-03-01T18:51:09;9.80;;;3.33;;
68800;SDS011;55784;50.734;7.086;2023-03-01T18:53:36;11.25;;;3.85;;
68800;SDS011;55784;50.734;7.086;2023-03-01T18:56:01;14.07;;;4.60;;
68800;SDS011;55784;50.734;7.086;2023-03-01T18:58:27;11.98;;;4.25;;
68800;SDS011;55784;50.734;7.086;2023-03-01T19:00:52;10.85;;;4.03;;
68800;SDS011;55784;50.734;7.086;2023-03-01T19:03:18;14.33;;;4.53;;
68800;SDS011;55784;50.734;7.086;2023-03-01T19:05:43;9.83;;;3.70;;
68800;SDS011;55784;50.734;7.086;2023-03-01T19:08:10;11.43;;;4.20;;
68800;SDS011;55784;50.734;7.086;2023-03-01T19:10:35;11.67;;;4.30;;
68800;SDS011;55784;50.734;7.086;2023-03-01T19:13:00;12.80;;;4.20;;